sensor_id;sensor_type;location;lat;lon;timestamp;pressure;altitude;pressure_sealevel;temperature;humidity
26775;BME280;14362;51.902;7.626;2022-08-24T00:00:56;101061.72;;;22.11;82.44
26775;BME280;14362;51.902;7.626;2022-08-24T00:04:59;101076.28;;;22.06;82.48
26775;BME280;14362;51.902;7.626;2022-08-24T00:09:00;101062.09;;;22.06;82.28
26775;BME280;14362;51.902;7.626;2022-08-24T00:13:02;101055.91;;;21.94;82.70
26775;BME280;14362;51.902;7.626;2022-08-24T00:17:05;101061.91;;;21.85;83.37
26775;BME280;14362;51.902;7.626;2022-08-24T00:21:07;101069.16;;;21.79;83.82
26775;BME280;14362;51.902;7.626;2022-08-24T00:25:11;101067.53;;;21.82;84.59
26775;BME280;14362;51.902;7.626;2022-08-24T00:29:12;101068.28;;;21.75;84.50
26775;BME280;14362;51.902;7.626;2022-08-24T00:33:14;101066.97;;;21.63;85.10
26775;BME280;14362;51.902;7.626;2022-08-24T00:37:17;101062.97;;;21.70;85.89
26775;BME280;14362;51.902;7.626;2022-08-24T00:41:18;101064.41;;;21.54;85.98
26775;BME280;14362;51.902;7.626;2022-08-24T00:45:20;101063.97;;;21.49;86.61
26775;BME280;14362;51.902;7.626;2022-08-24T00:49:26;101074.44;;;21.45;87.55
26775;BME280;14362;51.902;7.626;2022-08-24T00:53:34;101068.66;;;21.34;87.42
26775;BME280;14362;51.902;7.626;2022-08-24T00:57:40;101069.09;;;21.36;87.93
26775;BME280;14362;51.902;7.626;2022-08-24T01:01:42;101076.31;;;21.34;88.31
26775;BME280;14362;51.902;7.626;2022-08-24T01:05:44;101082.38;;;21.29;88.76
26775;BME280;14362;51.902;7.626;2022-08-24T01:09:47;101083.59;;;21.31;88.49
26775;BME280;14362;51.902;7.626;2022-08-24T01:13:51;101082.41;;;21.32;88.99
26775;BME280;14362;51.902;7.626;2022-08-24T01:17:53;101084.66;;;21.16;89.49
26775;BME280;14362;51.902;7.626;2022-08-24T01:22:40;101080.69;;;21.24;89.45
26775;BME280;14362;51.902;7.626;2022-08-24T01:26:48;101075.28;;;21.12;90.15
26775;BME280;14362;51.902;7.626;2022-08-24T01:30:50;101074.06;;;21.13;89.69
26775;BME280;14362;51.902;7.626;2022-08-24T01:34:52;101073.97;;;21.06;89.96
26775;BME280;14362;51.902;7.626;2022-08-24T01:38:54;101067.84;;;21.01;89.64
26775;BME280;14362;51.902;7.626;2022-08-24T01:42:58;101073.50;;;21.01;90.50
26775;BME280;14362;51.902;7.626;2022-08-24T01:47:00;101075.03;;;20.95;90.50
26775;BME280;14362;51.902;7.626;2022-08-24T01:51:02;101080.31;;;20.93;90.94
26775;BME280;14362;51.902;7.626;2022-08-24T01:55:04;101083.06;;;20.89;91.11
26775;BME280;14362;51.902;7.626;2022-08-24T01:59:07;101087.06;;;20.85;91.60
26775;BME280;14362;51.902;7.626;2022-08-24T02:03:09;101089.47;;;20.83;92.06
26775;BME280;14362;51.902;7.626;2022-08-24T02:07:11;101079.00;;;20.87;92.27
26775;BME280;14362;51.902;7.626;2022-08-24T02:11:12;101079.38;;;20.85;92.67
26775;BME280;14362;51.902;7.626;2022-08-24T02:15:15;101091.06;;;20.80;91.68
26775;BME280;14362;51.902;7.626;2022-08-24T02:19:16;101092.28;;;20.79;92.63
26775;BME280;14362;51.902;7.626;2022-08-24T02:23:18;101091.44;;;20.79;92.46
26775;BME280;14362;51.902;7.626;2022-08-24T02:27:20;101090.97;;;20.77;93.69
26775;BME280;14362;51.902;7.626;2022-08-24T02:31:23;101098.22;;;20.74;93.53
26775;BME280;14362;51.902;7.626;2022-08-24T02:35:26;101097.44;;;20.74;93.19
26775;BME280;14362;51.902;7.626;2022-08-24T02:39:28;101104.63;;;20.68;93.32
26775;BME280;14362;51.902;7.626;2022-08-24T02:43:30;101098.94;;;20.68;93.33
26775;BME280;14362;51.902;7.626;2022-08-24T02:47:34;101101.63;;;20.58;92.93
26775;BME280;14362;51.902;7.626;2022-08-24T02:51:36;101095.84;;;20.51;94.58
26775;BME280;14362;51.902;7.626;2022-08-24T02:55:38;101104.25;;;20.44;95.06
26775;BME280;14362;51.902;7.626;2022-08-24T02:59:40;101107.00;;;20.40;95.75
26775;BME280;14362;51.902;7.626;2022-08-24T03:03:43;101103.91;;;20.49;96.54
26775;BME280;14362;51.902;7.626;2022-08-24T03:07:45;101102.81;;;20.31;97.52
26775;BME280;14362;51.902;7.626;2022-08-24T03:11:47;101101.69;;;20.35;97.98
26775;BME280;14362;51.902;7.626;2022-08-24T03:15:48;101103.16;;;20.26;98.59
26775;BME280;14362;51.902;7.626;2022-08-24T03:19:51;101097.66;;;20.10;98.65
26775;BME280;14362;51.902;7.626;2022-08-24T03:23:53;101097.16;;;20.05;99.93
26775;BME280;14362;51.902;7.626;2022-08-24T03:27:54;101089.03;;;20.03;99.93
26775;BME280;14362;51.902;7.626;2022-08-24T03:31:56;101096.94;;;19.94;99.98
26775;BME280;14362;51.902;7.626;2022-08-24T03:35:58;101090.16;;;19.99;99.69
26775;BME280;14362;51.902;7.626;2022-08-24T03:40:00;101095.31;;;19.93;99.90
26775;BME280;14362;51.902;7.626;2022-08-24T03:44:02;101087.97;;;19.89;99.77
26775;BME280;14362;51.902;7.626;2022-08-24T03:48:04;101087.19;;;19.92;99.68
26775;BME280;14362;51.902;7.626;2022-08-24T03:52:06;101090.41;;;19.90;99.46
26775;BME280;14362;51.902;7.626;2022-08-24T03:56:08;101107.00;;;19.69;100.00
26775;BME280;14362;51.902;7.626;2022-08-24T04:00:11;101108.50;;;19.63;100.00
26775;BME280;14362;51.902;7.626;2022-08-24T04:04:13;101105.31;;;19.65;100.00
26775;BME280;14362;51.902;7.626;2022-08-24T04:08:16;101109.56;;;19.56;100.00
26775;BME280;14362;51.902;7.626;2022-08-24T04:12:17;101104.97;;;19.48;100.00
26775;BME280;14362;51.902;7.626;2022-08-24T04:16:20;101109.41;;;19.49;100.00
26775;BME280;14362;51.902;7.626;2022-08-24T04:20:21;101112.00;;;19.57;100.00
26775;BME280;14362;51.902;7.626;2022-08-24T04:24:26;101111.50;;;19.52;100.00
26775;BME280;14362;51.902;7.626;2022-08-24T04:28:27;101122.91;;;19.36;100.00
26775;BME280;14362;51.902;7.626;2022-08-24T04:32:30;101120.91;;;19.37;100.00
26775;BME280;14362;51.902;7.626;2022-08-24T04:36:32;101129.84;;;19.39;100.00
26775;BME280;14362;51.902;7.626;2022-08-24T04:40:37;101124.09;;;19.35;100.00
26775;BME280;14362;51.902;7.626;2022-08-24T04:44:39;101129.34;;;19.33;100.00
26775;BME280;14362;51.902;7.626;2022-08-24T04:48:41;101133.78;;;19.34;100.00
26775;BME280;14362;51.902;7.626;2022-08-24T04:52:43;101133.03;;;19.37;100.00
26775;BME280;14362;51.902;7.626;2022-08-24T04:56:46;101140.69;;;19.37;100.00
26775;BME280;14362;51.902;7.626;2022-08-24T05:00:47;101139.50;;;19.38;100.00
26775;BME280;14362;51.902;7.626;2022-08-24T05:04:49;101148.00;;;19.38;100.00
26775;BME280;14362;51.902;7.626;2022-08-24T05:08:51;101144.03;;;19.42;100.00
26775;BME280;14362;51.902;7.626;2022-08-24T05:12:54;101153.03;;;19.48;100.00
26775;BME280;14362;51.902;7.626;2022-08-24T05:16:55;101156.81;;;19.55;100.00
26775;BME280;14362;51.902;7.626;2022-08-24T05:20:57;101158.22;;;19.64;100.00
26775;BME280;14362;51.902;7.626;2022-08-24T05:24:58;101157.84;;;19.66;100.00
26775;BME280;14362;51.902;7.626;2022-08-24T05:29:02;101147.88;;;19.72;100.00
26775;BME280;14362;51.902;7.626;2022-08-24T05:33:04;101148.28;;;19.74;100.00
26775;BME280;14362;51.902;7.626;2022-08-24T05:37:06;101163.03;;;19.83;100.00
26775;BME280;14362;51.902;7.626;2022-08-24T05:41:09;101163.53;;;19.88;100.00
26775;BME280;14362;51.902;7.626;2022-08-24T05:45:12;101168.03;;;19.93;100.00
26775;BME280;14362;51.902;7.626;2022-08-24T05:49:13;101165.00;;;20.01;100.00
26775;BME280;14362;51.902;7.626;2022-08-24T05:53:15;101167.22;;;20.11;100.00
26775;BME280;14362;51.902;7.626;2022-08-24T05:57:16;101173.00;;;20.18;97.57
26775;BME280;14362;51.902;7.626;2022-08-24T06:01:21;101174.81;;;20.30;96.15
26775;BME280;14362;51.902;7.626;2022-08-24T06:05:23;101177.75;;;20.37;95.96
26775;BME280;14362;51.902;7.626;2022-08-24T06:09:24;101174.66;;;20.45;95.41
26775;BME280;14362;51.902;7.626;2022-08-24T06:13:26;101178.81;;;20.51;93.63
26775;BME280;14362;51.902;7.626;2022-08-24T06:17:29;101184.56;;;20.58;91.78
26775;BME280;14362;51.902;7.626;2022-08-24T06:21:31;101188.41;;;20.69;89.86
26775;BME280;14362;51.902;7.626;2022-08-24T06:25:33;101197.16;;;20.83;87.67
26775;BME280;14362;51.902;7.626;2022-08-24T06:29:54;101201.03;;;20.97;86.35
26775;BME280;14362;51.902;7.626;2022-08-24T06:33:57;101196.03;;;21.17;86.18
26775;BME280;14362;51.902;7.626;2022-08-24T06:37:58;101200.44;;;21.44;84.90
26775;BME280;14362;51.902;7.626;2022-08-24T06:42:00;101204.44;;;21.69;84.11
26775;BME280;14362;51.902;7.626;2022-08-24T06:46:03;101199.47;;;21.95;83.06
26775;BME280;14362;51.902;7.626;2022-08-24T06:50:07;101212.28;;;22.18;82.34
26775;BME280;14362;51.902;7.626;2022-08-24T06:54:08;101212.13;;;22.41;80.87
26775;BME280;14362;51.902;7.626;2022-08-24T06:58:10;101218.84;;;22.66;79.53
26775;BME280;14362;51.902;7.626;2022-08-24T07:02:11;101210.88;;;22.88;77.99
26775;BME280;14362;51.902;7.626;2022-08-24T07:06:17;101214.34;;;23.18;76.60
26775;BME280;14362;51.902;7.626;2022-08-24T07:10:18;101213.25;;;23.44;75.34
26775;BME280;14362;51.902;7.626;2022-08-24T07:14:20;101212.97;;;23.70;74.23
26775;BME280;14362;51.902;7.626;2022-08-24T07:18:21;101223.66;;;23.93;71.08
26775;BME280;14362;51.902;7.626;2022-08-24T07:22:24;101226.97;;;24.16;66.83
26775;BME280;14362;51.902;7.626;2022-08-24T07:26:27;101225.38;;;24.40;63.10
26775;BME280;14362;51.902;7.626;2022-08-24T07:30:29;101228.69;;;24.63;61.59
26775;BME280;14362;51.902;7.626;2022-08-24T07:34:31;101232.72;;;24.83;59.70
26775;BME280;14362;51.902;7.626;2022-08-24T07:38:34;101228.69;;;24.87;58.97
26775;BME280;14362;51.902;7.626;2022-08-24T07:42:36;101226.63;;;24.84;60.29
26775;BME280;14362;51.902;7.626;2022-08-24T07:46:39;101233.16;;;24.81;60.14
26775;BME280;14362;51.902;7.626;2022-08-24T07:50:41;101242.09;;;24.87;61.24
26775;BME280;14362;51.902;7.626;2022-08-24T07:54:44;101240.88;;;24.98;61.22
26775;BME280;14362;51.902;7.626;2022-08-24T07:58:45;101235.97;;;25.12;61.39
26775;BME280;14362;51.902;7.626;2022-08-24T08:02:47;101232.69;;;25.35;61.88
26775;BME280;14362;51.902;7.626;2022-08-24T08:06:49;101235.88;;;25.58;58.92
26775;BME280;14362;51.902;7.626;2022-08-24T08:10:52;101246.03;;;25.80;58.61
26775;BME280;14362;51.902;7.626;2022-08-24T08:14:53;101244.69;;;25.98;56.75
26775;BME280;14362;51.902;7.626;2022-08-24T08:18:56;101250.72;;;26.17;57.12
26775;BME280;14362;51.902;7.626;2022-08-24T08:22:58;101254.69;;;26.37;55.38
26775;BME280;14362;51.902;7.626;2022-08-24T08:27:18;101245.28;;;26.37;54.63
26775;BME280;14362;51.902;7.626;2022-08-24T08:31:20;101246.06;;;26.44;54.93
26775;BME280;14362;51.902;7.626;2022-08-24T08:35:22;101245.53;;;26.60;54.51
26775;BME280;14362;51.902;7.626;2022-08-24T08:39:24;101251.13;;;26.77;54.13
26775;BME280;14362;51.902;7.626;2022-08-24T08:43:39;101248.94;;;26.95;53.56
26775;BME280;14362;51.902;7.626;2022-08-24T08:48:09;101249.63;;;27.09;52.72
26775;BME280;14362;51.902;7.626;2022-08-24T08:52:32;101249.50;;;27.23;52.59
26775;BME280;14362;51.902;7.626;2022-08-24T08:56:45;101252.72;;;27.29;51.61
26775;BME280;14362;51.902;7.626;2022-08-24T09:01:00;101251.31;;;27.44;51.54
26775;BME280;14362;51.902;7.626;2022-08-24T09:09:47;101257.75;;;27.55;51.19
26775;BME280;14362;51.902;7.626;2022-08-24T09:14:25;101246.03;;;27.76;50.67
26775;BME280;14362;51.902;7.626;2022-08-24T09:18:48;101248.63;;;27.97;47.69
26775;BME280;14362;51.902;7.626;2022-08-24T09:23:02;101244.13;;;27.96;47.64
26775;BME280;14362;51.902;7.626;2022-08-24T09:27:15;101242.88;;;28.00;48.39
26775;BME280;14362;51.902;7.626;2022-08-24T09:31:41;101232.28;;;28.23;45.92
26775;BME280;14362;51.902;7.626;2022-08-24T09:36:06;101236.59;;;28.38;45.36
26775;BME280;14362;51.902;7.626;2022-08-24T09:40:17;101228.66;;;28.19;46.43
26775;BME280;14362;51.902;7.626;2022-08-24T09:44:43;101226.84;;;28.32;47.69
26775;BME280;14362;51.902;7.626;2022-08-24T09:54:07;101232.16;;;28.60;45.59
26775;BME280;14362;51.902;7.626;2022-08-24T09:58:23;101236.44;;;28.49;46.34
26775;BME280;14362;51.902;7.626;2022-08-24T10:02:52;101245.25;;;28.61;45.06
26775;BME280;14362;51.902;7.626;2022-08-24T10:07:05;101227.84;;;28.72;44.68
26775;BME280;14362;51.902;7.626;2022-08-24T10:11:20;101225.69;;;28.79;44.61
26775;BME280;14362;51.902;7.626;2022-08-24T10:15:30;101222.19;;;28.91;44.59
26775;BME280;14362;51.902;7.626;2022-08-24T10:19:47;101215.84;;;29.03;44.48
26775;BME280;14362;51.902;7.626;2022-08-24T10:24:00;101212.53;;;29.05;43.34
26775;BME280;14362;51.902;7.626;2022-08-24T10:28:32;101211.16;;;29.13;43.37
26775;BME280;14362;51.902;7.626;2022-08-24T10:32:44;101210.81;;;29.30;42.17
26775;BME280;14362;51.902;7.626;2022-08-24T10:37:19;101210.75;;;29.33;43.70
26775;BME280;14362;51.902;7.626;2022-08-24T10:46:32;101213.56;;;29.37;42.63
26775;BME280;14362;51.902;7.626;2022-08-24T10:50:49;101206.09;;;29.39;42.89
26775;BME280;14362;51.902;7.626;2022-08-24T10:54:55;101212.56;;;29.66;42.25
26775;BME280;14362;51.902;7.626;2022-08-24T10:59:06;101196.25;;;29.79;42.07
26775;BME280;14362;51.902;7.626;2022-08-24T11:03:15;101210.34;;;29.74;40.83
26775;BME280;14362;51.902;7.626;2022-08-24T11:07:20;101207.00;;;29.95;40.43
26775;BME280;14362;51.902;7.626;2022-08-24T11:11:25;101196.91;;;29.87;40.76
26775;BME280;14362;51.902;7.626;2022-08-24T11:15:27;101197.66;;;29.91;40.66
26775;BME280;14362;51.902;7.626;2022-08-24T11:19:33;101193.97;;;30.10;40.36
26775;BME280;14362;51.902;7.626;2022-08-24T11:23:35;101193.81;;;30.17;39.55
26775;BME280;14362;51.902;7.626;2022-08-24T11:27:38;101188.94;;;30.14;39.36
26775;BME280;14362;51.902;7.626;2022-08-24T11:31:41;101187.81;;;30.27;38.61
26775;BME280;14362;51.902;7.626;2022-08-24T11:35:44;101183.72;;;30.25;39.87
26775;BME280;14362;51.902;7.626;2022-08-24T11:39:46;101187.72;;;30.30;39.69
26775;BME280;14362;51.902;7.626;2022-08-24T11:43:56;101189.22;;;30.35;39.06
26775;BME280;14362;51.902;7.626;2022-08-24T11:48:06;101185.44;;;30.57;38.08
26775;BME280;14362;51.902;7.626;2022-08-24T11:52:14;101185.50;;;30.54;38.29
26775;BME280;14362;51.902;7.626;2022-08-24T11:56:24;101184.84;;;30.78;38.08
26775;BME280;14362;51.902;7.626;2022-08-24T12:00:37;101181.09;;;30.81;37.49
26775;BME280;14362;51.902;7.626;2022-08-24T12:04:48;101170.94;;;30.77;38.20
26775;BME280;14362;51.902;7.626;2022-08-24T12:08:57;101171.66;;;30.81;38.16
26775;BME280;14362;51.902;7.626;2022-08-24T12:13:04;101174.13;;;31.11;37.15
26775;BME280;14362;51.902;7.626;2022-08-24T12:17:13;101177.56;;;31.06;37.02
26775;BME280;14362;51.902;7.626;2022-08-24T12:21:20;101180.09;;;31.04;36.64
26775;BME280;14362;51.902;7.626;2022-08-24T12:25:25;101170.38;;;30.98;37.01
26775;BME280;14362;51.902;7.626;2022-08-24T12:29:49;101175.34;;;31.26;36.94
26775;BME280;14362;51.902;7.626;2022-08-24T12:33:55;101170.53;;;31.23;37.14
26775;BME280;14362;51.902;7.626;2022-08-24T12:38:02;101170.34;;;31.14;38.15
26775;BME280;14362;51.902;7.626;2022-08-24T12:42:13;101165.50;;;31.11;39.96
26775;BME280;14362;51.902;7.626;2022-08-24T12:46:20;101173.59;;;31.16;37.90
26775;BME280;14362;51.902;7.626;2022-08-24T12:50:27;101175.09;;;31.20;36.44
26775;BME280;14362;51.902;7.626;2022-08-24T12:54:41;101167.19;;;31.24;36.58
26775;BME280;14362;51.902;7.626;2022-08-24T12:58:56;101167.38;;;31.17;41.01
26775;BME280;14362;51.902;7.626;2022-08-24T13:03:02;101165.50;;;30.95;39.13
26775;BME280;14362;51.902;7.626;2022-08-24T13:07:08;101159.88;;;30.75;39.36
26775;BME280;14362;51.902;7.626;2022-08-24T13:11:14;101150.16;;;30.53;41.42
26775;BME280;14362;51.902;7.626;2022-08-24T13:15:58;101155.03;;;30.56;38.48
26775;BME280;14362;51.902;7.626;2022-08-24T13:20:17;101155.72;;;30.92;37.23
26775;BME280;14362;51.902;7.626;2022-08-24T13:24:50;101151.13;;;30.79;36.42
26775;BME280;14362;51.902;7.626;2022-08-24T13:28:59;101148.47;;;31.00;35.98
26775;BME280;14362;51.902;7.626;2022-08-24T13:33:05;101149.13;;;31.08;37.38
26775;BME280;14362;51.902;7.626;2022-08-24T13:37:12;101148.69;;;31.09;38.16
26775;BME280;14362;51.902;7.626;2022-08-24T13:41:24;101150.47;;;31.03;36.54
26775;BME280;14362;51.902;7.626;2022-08-24T13:45:34;101148.94;;;30.99;36.43
26775;BME280;14362;51.902;7.626;2022-08-24T13:49:46;101140.75;;;31.13;34.94
26775;BME280;14362;51.902;7.626;2022-08-24T13:54:01;101143.00;;;31.34;35.91
26775;BME280;14362;51.902;7.626;2022-08-24T13:58:12;101135.22;;;31.47;36.40
26775;BME280;14362;51.902;7.626;2022-08-24T14:02:25;101128.19;;;31.48;35.35
26775;BME280;14362;51.902;7.626;2022-08-24T14:06:35;101132.78;;;31.86;34.46
26775;BME280;14362;51.902;7.626;2022-08-24T14:10:44;101126.81;;;32.18;33.40
26775;BME280;14362;51.902;7.626;2022-08-24T14:14:59;101126.72;;;32.34;31.97
26775;BME280;14362;51.902;7.626;2022-08-24T14:19:14;101126.50;;;32.16;32.29
26775;BME280;14362;51.902;7.626;2022-08-24T14:23:29;101118.25;;;32.02;33.23
26775;BME280;14362;51.902;7.626;2022-08-24T14:27:40;101118.84;;;32.22;32.87
26775;BME280;14362;51.902;7.626;2022-08-24T14:36:42;101114.31;;;32.58;32.92
26775;BME280;14362;51.902;7.626;2022-08-24T14:40:56;101115.94;;;32.72;32.74
26775;BME280;14362;51.902;7.626;2022-08-24T14:45:04;101103.91;;;32.73;31.85
26775;BME280;14362;51.902;7.626;2022-08-24T14:49:14;101103.56;;;32.59;31.01
26775;BME280;14362;51.902;7.626;2022-08-24T14:53:31;101099.88;;;32.71;30.28
26775;BME280;14362;51.902;7.626;2022-08-24T14:57:56;101090.69;;;32.39;31.23
26775;BME280;14362;51.902;7.626;2022-08-24T15:06:45;101080.84;;;32.48;32.12
26775;BME280;14362;51.902;7.626;2022-08-24T15:11:05;101084.97;;;32.60;31.83
26775;BME280;14362;51.902;7.626;2022-08-24T15:15:13;101086.50;;;32.52;31.23
26775;BME280;14362;51.902;7.626;2022-08-24T15:19:25;101086.63;;;32.48;31.48
26775;BME280;14362;51.902;7.626;2022-08-24T15:23:46;101083.97;;;32.54;31.09
26775;BME280;14362;51.902;7.626;2022-08-24T15:27:53;101077.75;;;32.43;32.32
26775;BME280;14362;51.902;7.626;2022-08-24T15:32:02;101081.44;;;32.44;31.41
26775;BME280;14362;51.902;7.626;2022-08-24T15:36:08;101078.06;;;32.57;31.07
26775;BME280;14362;51.902;7.626;2022-08-24T15:40:20;101077.84;;;32.64;30.97
26775;BME280;14362;51.902;7.626;2022-08-24T15:44:24;101080.13;;;32.57;31.12
26775;BME280;14362;51.902;7.626;2022-08-24T15:48:29;101077.03;;;32.51;31.36
26775;BME280;14362;51.902;7.626;2022-08-24T15:52:42;101074.28;;;32.36;30.92
26775;BME280;14362;51.902;7.626;2022-08-24T15:56:46;101073.16;;;32.33;31.55
26775;BME280;14362;51.902;7.626;2022-08-24T16:00:48;101076.41;;;32.23;32.39
26775;BME280;14362;51.902;7.626;2022-08-24T16:05:16;101074.31;;;32.11;31.81
26775;BME280;14362;51.902;7.626;2022-08-24T16:09:33;101067.94;;;32.03;32.05
26775;BME280;14362;51.902;7.626;2022-08-24T16:13:35;101065.97;;;32.00;32.30
26775;BME280;14362;51.902;7.626;2022-08-24T16:17:45;101062.53;;;31.93;32.74
26775;BME280;14362;51.902;7.626;2022-08-24T16:21:55;101063.94;;;31.88;32.42
26775;BME280;14362;51.902;7.626;2022-08-24T16:26:16;101073.97;;;31.84;32.57
26775;BME280;14362;51.902;7.626;2022-08-24T16:30:24;101076.94;;;31.80;31.86
26775;BME280;14362;51.902;7.626;2022-08-24T16:34:28;101068.53;;;31.73;32.61
26775;BME280;14362;51.902;7.626;2022-08-24T16:38:33;101072.69;;;31.72;32.81
26775;BME280;14362;51.902;7.626;2022-08-24T16:42:36;101071.28;;;31.64;33.64
26775;BME280;14362;51.902;7.626;2022-08-24T16:46:38;101069.78;;;31.60;33.67
26775;BME280;14362;51.902;7.626;2022-08-24T16:50:40;101074.38;;;31.57;32.40
26775;BME280;14362;51.902;7.626;2022-08-24T16:54:43;101066.56;;;31.58;32.68
26775;BME280;14362;51.902;7.626;2022-08-24T16:58:46;101062.59;;;31.52;32.23
26775;BME280;14362;51.902;7.626;2022-08-24T17:02:48;101067.69;;;31.48;31.28
26775;BME280;14362;51.902;7.626;2022-08-24T17:06:49;101064.66;;;31.39;32.48
26775;BME280;14362;51.902;7.626;2022-08-24T17:10:52;101066.38;;;31.37;32.74
26775;BME280;14362;51.902;7.626;2022-08-24T17:14:54;101064.97;;;31.29;32.79
26775;BME280;14362;51.902;7.626;2022-08-24T17:18:56;101064.06;;;31.32;33.12
26775;BME280;14362;51.902;7.626;2022-08-24T17:22:58;101065.78;;;31.29;32.48
26775;BME280;14362;51.902;7.626;2022-08-24T17:27:02;101066.81;;;31.23;33.29
26775;BME280;14362;51.902;7.626;2022-08-24T17:31:04;101061.16;;;31.19;32.75
26775;BME280;14362;51.902;7.626;2022-08-24T17:35:06;101078.75;;;31.09;33.02
26775;BME280;14362;51.902;7.626;2022-08-24T17:39:10;101079.84;;;30.99;33.30
26775;BME280;14362;51.902;7.626;2022-08-24T17:43:14;101072.28;;;30.89;33.01
26775;BME280;14362;51.902;7.626;2022-08-24T17:47:16;101077.44;;;30.81;33.03
26775;BME280;14362;51.902;7.626;2022-08-24T17:51:19;101082.44;;;30.65;34.42
26775;BME280;14362;51.902;7.626;2022-08-24T17:55:20;101080.91;;;30.44;35.37
26775;BME280;14362;51.902;7.626;2022-08-24T17:59:28;101086.75;;;30.25;35.88
26775;BME280;14362;51.902;7.626;2022-08-24T18:03:29;101085.50;;;30.10;36.34
26775;BME280;14362;51.902;7.626;2022-08-24T18:07:31;101092.41;;;29.97;36.74
26775;BME280;14362;51.902;7.626;2022-08-24T18:11:32;101092.34;;;29.81;37.22
26775;BME280;14362;51.902;7.626;2022-08-24T18:15:35;101093.22;;;29.62;38.33
26775;BME280;14362;51.902;7.626;2022-08-24T18:19:38;101087.84;;;29.44;38.65
26775;BME280;14362;51.902;7.626;2022-08-24T18:23:40;101091.97;;;29.24;38.49
26775;BME280;14362;51.902;7.626;2022-08-24T18:27:42;101093.88;;;29.11;39.69
26775;BME280;14362;51.902;7.626;2022-08-24T18:31:45;101093.41;;;28.93;39.73
26775;BME280;14362;51.902;7.626;2022-08-24T18:35:47;101097.78;;;28.78;39.96
26775;BME280;14362;51.902;7.626;2022-08-24T18:39:49;101101.03;;;28.57;40.87
26775;BME280;14362;51.902;7.626;2022-08-24T18:43:50;101103.34;;;28.43;41.22
26775;BME280;14362;51.902;7.626;2022-08-24T18:47:54;101113.91;;;28.26;40.77
26775;BME280;14362;51.902;7.626;2022-08-24T18:51:56;101116.53;;;28.14;41.94
26775;BME280;14362;51.902;7.626;2022-08-24T18:56:01;101116.06;;;27.93;42.55
26775;BME280;14362;51.902;7.626;2022-08-24T19:00:04;101113.38;;;27.79;43.17
26775;BME280;14362;51.902;7.626;2022-08-24T19:04:07;101123.00;;;27.65;43.87
26775;BME280;14362;51.902;7.626;2022-08-24T19:08:08;101127.25;;;27.50;44.17
26775;BME280;14362;51.902;7.626;2022-08-24T19:12:10;101133.09;;;27.43;44.72
26775;BME280;14362;51.902;7.626;2022-08-24T19:16:11;101127.06;;;27.34;47.52
26775;BME280;14362;51.902;7.626;2022-08-24T19:20:14;101124.16;;;26.64;72.61
26775;BME280;14362;51.902;7.626;2022-08-24T19:24:17;101128.31;;;25.34;81.41
26775;BME280;14362;51.902;7.626;2022-08-24T19:28:20;101123.59;;;24.72;85.14
26775;BME280;14362;51.902;7.626;2022-08-24T19:32:24;101128.53;;;24.50;87.73
26775;BME280;14362;51.902;7.626;2022-08-24T19:36:27;101130.91;;;24.41;85.53
26775;BME280;14362;51.902;7.626;2022-08-24T19:40:29;101131.75;;;24.45;80.61
26775;BME280;14362;51.902;7.626;2022-08-24T19:44:31;101133.38;;;24.50;82.23
26775;BME280;14362;51.902;7.626;2022-08-24T19:48:51;101123.59;;;24.54;79.68
26775;BME280;14362;51.902;7.626;2022-08-24T19:52:54;101128.09;;;24.59;76.69
26775;BME280;14362;51.902;7.626;2022-08-24T19:56:57;101136.63;;;24.66;72.20
26775;BME280;14362;51.902;7.626;2022-08-24T20:01:02;101136.59;;;24.76;67.16
26775;BME280;14362;51.902;7.626;2022-08-24T20:05:05;101142.69;;;24.88;67.21
26775;BME280;14362;51.902;7.626;2022-08-24T20:09:08;101144.72;;;25.02;63.20
26775;BME280;14362;51.902;7.626;2022-08-24T20:13:09;101147.13;;;25.14;63.67
26775;BME280;14362;51.902;7.626;2022-08-24T20:17:11;101150.78;;;25.21;61.50
26775;BME280;14362;51.902;7.626;2022-08-24T20:21:13;101148.72;;;25.29;57.42
26775;BME280;14362;51.902;7.626;2022-08-24T20:25:16;101143.38;;;25.38;57.61
26775;BME280;14362;51.902;7.626;2022-08-24T20:29:18;101148.69;;;25.36;60.03
26775;BME280;14362;51.902;7.626;2022-08-24T20:33:20;101152.75;;;25.35;57.93
26775;BME280;14362;51.902;7.626;2022-08-24T20:37:25;101157.25;;;25.36;57.66
26775;BME280;14362;51.902;7.626;2022-08-24T20:41:28;101151.13;;;25.41;53.62
26775;BME280;14362;51.902;7.626;2022-08-24T20:45:30;101152.31;;;25.47;52.86
26775;BME280;14362;51.902;7.626;2022-08-24T20:49:31;101154.34;;;25.46;54.59
26775;BME280;14362;51.902;7.626;2022-08-24T20:53:33;101162.53;;;25.41;53.92
26775;BME280;14362;51.902;7.626;2022-08-24T20:57:36;101165.00;;;25.39;53.13
26775;BME280;14362;51.902;7.626;2022-08-24T21:01:39;101159.28;;;25.39;53.31
26775;BME280;14362;51.902;7.626;2022-08-24T21:05:42;101172.34;;;25.36;53.07
26775;BME280;14362;51.902;7.626;2022-08-24T21:09:43;101172.31;;;25.40;51.99
26775;BME280;14362;51.902;7.626;2022-08-24T21:13:46;101169.09;;;25.34;52.12
26775;BME280;14362;51.902;7.626;2022-08-24T21:17:48;101166.22;;;25.31;52.38
26775;BME280;14362;51.902;7.626;2022-08-24T21:21:50;101174.00;;;25.27;51.88
26775;BME280;14362;51.902;7.626;2022-08-24T21:25:52;101177.25;;;25.25;51.45
26775;BME280;14362;51.902;7.626;2022-08-24T21:29:54;101171.59;;;25.15;51.64
26775;BME280;14362;51.902;7.626;2022-08-24T21:33:56;101177.69;;;25.06;52.55
26775;BME280;14362;51.902;7.626;2022-08-24T21:38:15;101187.47;;;25.05;51.87
26775;BME280;14362;51.902;7.626;2022-08-24T21:42:16;101189.13;;;25.03;51.28
26775;BME280;14362;51.902;7.626;2022-08-24T21:46:21;101190.78;;;25.00;50.95
26775;BME280;14362;51.902;7.626;2022-08-24T21:50:25;101183.88;;;24.91;51.02